Aviation Digital Data Service (ADDS)

Output produced by METARs form (1200 UTC 25 June 2019)
found at http://www.aviationweather.gov/metar/data/
 
OEAB 251100Z 21012KT 9999 SCT020 29/04 Q1023 NOSIG
TAF OEAB 251100Z 2512/2618 25014KT 8000 FEW020 
     TEMPO 2512/2518 SCT020 FEW025CB 
     BECMG 2518/2520 VRB03KT
       
OEAH 251100Z 34008KT CAVOK 47/02 Q1002 NOSIG
TAF OEAH 251100Z 2512/2618 04012KT CAVOK 
     BECMG 2518/2520 VRB03KT
       
OEBA 251100Z 06008KT 9999 FEW030 35/06 Q1017 NOSIG
TAF OEBA 251100Z 2512/2618 24012KT 8000 FEW030 
     PROB30 
     TEMPO 2512/2518 FEW025CB SCT030 
     BECMG 2518/2520 29010KT
       
OESK 251100Z 13011KT CAVOK 45/M03 Q1012
TAF OESK 251100Z 2512/2618 27012KT CAVOK 
     BECMG 2518/2520 VRB03KT
       
OERR 251100Z 31009KT CAVOK 45/06 Q1008 NOSIG
TAF OERR 251100Z 2512/2618 12012KT CAVOK 
     BECMG 2520/2522 VRB03KT
       
OEBH 251100Z 19006KT CAVOK 39/02 Q1012 NOSIG
TAF OEBH 251100Z 2512/2618 27014KT CAVOK 
     BECMG 2520/2522 VRB03KT
       
OEGS 251100Z 36006KT CAVOK 43/09 Q1009
TAF OEGS 251100Z 2512/2618 03013KT CAVOK 
     BECMG 2520/2522 VRB03KT
       
OEGT 251100Z 15012KT CAVOK 43/M01 Q1007 NOSIG
TAF OEGT 251100Z 2512/2618 04008KT CAVOK 
     BECMG 2520/2522 VRB03KT
       
OEHL 251100Z 03002KT CAVOK 40/03 Q1014 NOSIG
TAF OEHL 251100Z 2512/2618 04013KT CAVOK 
     BECMG 2518/2520 33014KT
       
OEGN 251100Z 21014KT 170V270 9000 FEW030 38/26 Q1004 NOSIG
TAF OEGN 251100Z 2512/2618 24014KT 7000 FEW030 SCT100 
     TEMPO 2512/2518 FEW025CB SCT030 
     BECMG 2518/2520 VRB03KT
       
OEJB 251100Z AUTO 36017KT CAVOK 45/09 Q1001 NOSIG
OEDR 251100Z 36020KT CAVOK 46/10 Q0999 NOSIG
TAF OEDR 250900Z 2512/2618 02014KT CAVOK 
     TEMPO 2519/2607 VRB06KT 7000 NSC
       
OEJN 251100Z 28012KT 9999 FEW040 33/26 Q1004 NOSIG
TAF OEJN 251100Z 2512/2618 28012KT 9999 FEW040 
     PROB30 
     TEMPO 2514/2518 4000 DU FEW035CB SCT040
       
OEDF 251100Z 36017KT CAVOK 46/05 Q1001 NOSIG
TAF OEDF 250900Z 2512/2618 02014KT CAVOK 
     TEMPO 2519/2607 VRB06KT 7000 NSC
       
OEKM 251100Z 22012KT 9999 SCT022 32/04 Q1021 NOSIG
TAF OEKM 251100Z 2512/2618 25014KT 8000 FEW020 
     TEMPO 2512/2518 SCT020 FEW025CB 
     BECMG 2518/2520 VRB03KT
       
OERK 251100Z 25004KT CAVOK 44/02 Q1009 NOSIG
TAF OERK 251100Z 2512/2618 24012KT CAVOK
       
TAF OEKK 250500Z 2506/2520 36013KT CAVOK 
     BECMG 2518/2520 36006KT
       
OENG 251100Z 06006KT 9999 FEW030 39/05 Q1013 NOSIG
TAF OENG 251100Z 2512/2618 09013KT CAVOK 
     BECMG 2518/2520 VRB03KT
       
OEMA 251100Z 14004KT CAVOK 44/00 Q1010 NOSIG
TAF OEMA 251100Z 2512/2618 07012KT CAVOK
       
OEPA 251100Z 36012KT CAVOK 45/11 Q1007 NOSIG
TAF OEPA 251100Z 2512/2618 33014KT CAVOK 
     BECMG 2520/2522 VRB03KT
       
OERF 251100Z 22004KT CAVOK 44/M03 Q1008
TAF OERF 251100Z 2512/2618 36012KT CAVOK 
     BECMG 2516/2518 VRB03KT
       
TAF OERY 251100Z 2512/2618 33012KT CAVOK 
     BECMG 2516/2518 VRB03KT
       
OESH 251100Z 02005KT CAVOK 41/08 Q1007 NOSIG
TAF OESH 251100Z 2512/2618 04014KT 7000 FEW040 SCT100 
     BECMG 2518/2520 VRB03KT
       
OETB 251100Z 10007KT CAVOK 42/M01 Q1010 NOSIG
TAF OETB 251100Z 2512/2618 25006G16KT CAVOK 
     BECMG 2518/2520 VRB03KT
       
OETF 251100Z 09010KT 9999 FEW030 SCT200 36/M01 Q1017 NOSIG
TAF OETF 251100Z 2512/2618 26014KT 8000 SCT030 
     PROB30 
     TEMPO 2512/2518 FEW025CB
       
OETR 251100Z 21004KT CAVOK 42/05 Q1011
TAF OETR 251100Z 2512/2618 24013KT CAVOK 
     BECMG 2516/2518 VRB03KT
       
OEWD 251100Z 05004KT CAVOK 43/08 Q1007
TAF OEWD 251100Z 2512/2618 09013KT CAVOK 
     BECMG 2518/2520 VRB03KT
       
OEWJ 251100Z 29017KT CAVOK 33/27 Q1004 NOSIG
TAF OEWJ 251100Z 2512/2618 30010KT CAVOK 
     BECMG 2518/2520 VRB03KT
       
OEYN 251100Z 26016KT 9999 FEW040 45/13 Q1001 NOSIG
TAF OEYN 251100Z 2512/2618 33010G20KT CAVOK 
     BECMG 2520/2522 VRB03KT